createdAt,value
2023-04-01T06:31:29.782Z,1007.66
2023-04-01T06:31:40.843Z,1007.65
2023-04-01T06:31:51.098Z,1007.63
2023-04-01T06:32:01.129Z,1007.64
2023-04-01T06:32:11.355Z,1007.65
2023-04-01T06:32:21.419Z,1007.62
2023-04-01T06:32:31.500Z,1007.67
2023-04-01T06:32:41.556Z,1007.66
2023-04-01T06:32:51.783Z,1007.65
2023-04-01T06:33:01.804Z,1007.64
2023-04-01T06:33:11.913Z,1007.65
2023-04-01T06:33:22.014Z,1007.65
2023-04-01T06:33:32.097Z,1007.63
2023-04-01T06:33:42.256Z,1007.68
2023-04-01T06:33:52.462Z,1007.64
2023-04-01T06:34:02.473Z,1007.64
2023-04-01T06:34:12.596Z,1007.64
2023-04-01T06:34:22.856Z,1007.56
2023-04-01T06:34:33.033Z,1007.66
2023-04-01T06:34:43.064Z,1007.66
2023-04-01T06:34:53.259Z,1007.63
2023-04-01T06:35:03.350Z,1007.66
2023-04-01T06:35:13.361Z,1007.66
2023-04-01T06:35:23.485Z,1007.63
2023-04-01T06:35:33.754Z,1007.67
2023-04-01T06:35:43.868Z,1007.66
2023-04-01T06:35:54.047Z,1007.64
2023-04-01T06:36:04.164Z,1007.64
2023-04-01T06:36:14.348Z,1007.60
2023-04-01T06:36:24.380Z,1007.64
2023-04-01T06:36:34.488Z,1007.70
2023-04-01T06:36:44.509Z,1007.67
2023-04-01T06:36:54.634Z,1007.67
2023-04-01T06:37:04.752Z,1007.65
2023-04-01T06:37:14.805Z,1007.67
2023-04-01T06:37:24.937Z,1007.65
2023-04-01T06:37:35.117Z,1007.68
2023-04-01T06:37:45.180Z,1007.69
2023-04-01T06:37:55.557Z,1007.64
2023-04-01T06:38:05.514Z,1007.62
2023-04-01T06:38:15.531Z,1007.65
2023-04-01T06:38:25.586Z,1007.68
2023-04-01T06:38:35.712Z,1007.64
2023-04-01T06:38:45.815Z,1007.68
2023-04-01T06:38:56.019Z,1007.67
2023-04-01T06:39:06.072Z,1007.69
2023-04-01T06:39:16.099Z,1007.66
2023-04-01T06:39:26.315Z,1007.67
2023-04-01T06:39:36.421Z,1007.68
2023-04-01T06:39:46.435Z,1007.69
2023-04-01T06:39:56.669Z,1007.68
2023-04-01T06:40:06.728Z,1007.69
2023-04-01T06:40:16.857Z,1007.73
2023-04-01T06:40:27.005Z,1007.72
2023-04-01T06:40:37.130Z,1007.72
2023-04-01T06:40:47.272Z,1007.66
2023-04-01T06:40:57.483Z,1007.67
2023-04-01T06:41:07.518Z,1007.63
2023-04-01T06:41:17.804Z,1007.70
2023-04-01T06:41:27.723Z,1007.69
2023-04-01T06:41:38.008Z,1007.68
2023-04-01T06:41:47.986Z,1007.68
2023-04-01T06:41:58.191Z,1007.72
2023-04-01T06:42:08.321Z,1007.68
2023-04-01T06:42:18.427Z,1007.63
2023-04-01T06:42:28.526Z,1007.66
2023-04-01T06:42:38.662Z,1007.66
2023-04-01T06:42:48.866Z,1007.60
2023-04-01T06:42:58.891Z,1007.59
2023-04-01T06:43:08.960Z,1007.61
2023-04-01T06:43:19.126Z,1007.60
2023-04-01T06:43:29.199Z,1007.58
2023-04-01T06:43:39.350Z,1007.62
2023-04-01T06:43:49.374Z,1007.64
2023-04-01T06:43:59.560Z,1007.61
2023-04-01T06:44:09.637Z,1007.60
2023-04-01T06:44:19.792Z,1007.59
2023-04-01T06:44:29.926Z,1007.62
2023-04-01T06:44:40.095Z,1007.60
2023-04-01T06:44:50.154Z,1007.63
2023-04-01T06:45:00.400Z,1007.67
2023-04-01T06:45:10.520Z,1007.63
2023-04-01T06:45:20.585Z,1007.59
2023-04-01T06:45:30.729Z,1007.58
2023-04-01T06:45:40.786Z,1007.62
2023-04-01T06:45:50.931Z,1007.61
2023-04-01T06:46:01.115Z,1007.60
2023-04-01T06:46:11.237Z,1007.64
2023-04-01T06:46:21.447Z,1007.58
2023-04-01T06:46:31.475Z,1007.63
2023-04-01T06:46:41.674Z,1007.62
2023-04-01T06:46:51.597Z,1007.66
2023-04-01T06:47:01.777Z,1007.63
2023-04-01T06:47:11.892Z,1007.63
2023-04-01T06:47:22.013Z,1007.61
2023-04-01T06:47:32.181Z,1007.61
2023-04-01T06:47:44.224Z,1007.58
2023-04-01T06:47:52.324Z,1007.61
2023-04-01T06:48:02.651Z,1007.55
2023-04-01T06:48:12.683Z,1007.61
2023-04-01T06:48:22.722Z,1007.57
2023-04-01T06:48:32.838Z,1007.57
2023-04-01T06:48:43.166Z,1007.57
2023-04-01T06:48:53.079Z,1007.60
2023-04-01T06:49:03.250Z,1007.58
2023-04-01T06:49:13.270Z,1007.58
2023-04-01T06:49:23.529Z,1007.56
2023-04-01T06:49:33.571Z,1007.57
2023-04-01T06:49:43.746Z,1007.59
2023-04-01T06:49:53.826Z,1007.58
2023-04-01T06:50:03.966Z,1007.56
2023-04-01T06:50:13.993Z,1007.56
2023-04-01T06:50:24.374Z,1007.54
2023-04-01T06:50:34.232Z,1007.58
2023-04-01T06:50:44.429Z,1007.56
2023-04-01T06:50:54.665Z,1007.57
2023-04-01T06:51:04.705Z,1007.56
2023-04-01T06:51:15.040Z,1007.53
2023-04-01T06:51:24.891Z,1007.55
2023-04-01T06:51:35.014Z,1007.53
2023-04-01T06:51:45.138Z,1007.56
2023-04-01T06:51:55.155Z,1007.54
2023-04-01T06:52:05.281Z,1007.55
2023-04-01T06:52:15.507Z,1007.55
2023-04-01T06:52:25.553Z,1007.56
2023-04-01T06:52:35.728Z,1007.55
2023-04-01T06:52:45.857Z,1007.56
2023-04-01T06:52:56.203Z,1007.57
2023-04-01T06:53:06.104Z,1007.56
2023-04-01T06:53:16.169Z,1007.62
2023-04-01T06:53:27.343Z,1007.57
2023-04-01T06:53:36.312Z,1007.60
2023-04-01T06:53:46.512Z,1007.58
2023-04-01T06:53:56.663Z,1007.59
2023-04-01T06:54:06.841Z,1007.63
2023-04-01T06:54:16.998Z,1007.62
2023-04-01T06:54:37.722Z,1007.59
2023-04-01T06:54:47.349Z,1007.59
2023-04-01T06:54:57.449Z,1007.56
2023-04-01T06:55:07.619Z,1007.58
2023-04-01T06:55:17.779Z,1007.54
2023-04-01T06:55:27.860Z,1007.60
2023-04-01T06:55:37.945Z,1007.60
2023-04-01T06:55:48.071Z,1007.60
2023-04-01T06:55:58.242Z,1007.55
2023-04-01T06:56:08.346Z,1007.62
2023-04-01T06:56:18.513Z,1007.63
2023-04-01T06:56:28.438Z,1007.60
2023-04-01T06:56:38.636Z,1007.66
2023-04-01T06:56:48.834Z,1007.61
2023-04-01T06:56:58.840Z,1007.63
2023-04-01T06:57:09.026Z,1007.58
2023-04-01T06:57:19.163Z,1007.60
2023-04-01T06:57:29.289Z,1007.61
2023-04-01T06:57:39.378Z,1007.59
2023-04-01T06:57:49.539Z,1007.60
2023-04-01T06:57:59.670Z,1007.58
2023-04-01T06:58:09.687Z,1007.64
2023-04-01T06:58:19.892Z,1007.62
2023-04-01T06:58:29.997Z,1007.57
2023-04-01T06:58:40.111Z,1007.56
2023-04-01T06:58:50.284Z,1007.50
2023-04-01T06:59:00.464Z,1007.54
2023-04-01T06:59:10.692Z,1007.53
2023-04-01T06:59:20.713Z,1007.57
2023-04-01T06:59:30.885Z,1007.59
2023-04-01T06:59:40.864Z,1007.50
2023-04-01T06:59:51.069Z,1007.52
2023-04-01T07:00:01.191Z,1007.50
2023-04-01T07:00:11.237Z,1007.52
2023-04-01T07:00:21.326Z,1007.50
2023-04-01T07:00:31.566Z,1007.49
2023-04-01T07:00:41.619Z,1007.48
2023-04-01T07:00:51.904Z,1007.39
2023-04-01T07:01:01.817Z,1007.42
2023-04-01T07:01:12.090Z,1007.38
2023-04-01T07:01:22.194Z,1007.37
2023-04-01T07:01:32.292Z,1007.39
2023-04-01T07:01:42.576Z,1007.33
2023-04-01T07:02:02.526Z,1007.30
2023-04-01T07:02:08.523Z,1007.31
2023-04-01T07:02:18.585Z,1007.25
2023-04-01T07:02:28.796Z,1007.22
2023-04-01T07:02:38.907Z,1007.22
2023-04-01T07:02:49.093Z,1007.19
2023-04-01T07:03:09.251Z,1007.22
2023-04-01T07:03:19.451Z,1007.17
2023-04-01T07:03:29.545Z,1007.17
2023-04-01T07:03:39.995Z,1007.15
2023-04-01T07:03:49.978Z,1007.15
2023-04-01T07:04:00.087Z,1007.14
2023-04-01T07:04:10.078Z,1007.07
2023-04-01T07:04:20.224Z,1007.08
2023-04-01T07:04:30.394Z,1007.13
2023-04-01T07:04:40.697Z,1007.09
2023-04-01T07:04:50.695Z,1007.10
2023-04-01T07:05:00.774Z,1007.11
2023-04-01T07:05:11.083Z,1007.13
2023-04-01T07:05:21.113Z,1007.06
2023-04-01T07:05:31.481Z,1007.11
2023-04-01T07:05:41.303Z,1007.06
2023-04-01T07:05:51.427Z,1007.06
2023-04-01T07:06:01.678Z,1007.11
2023-04-01T07:06:11.844Z,1007.10
2023-04-01T07:06:21.736Z,1007.08
2023-04-01T07:06:31.934Z,1007.06
2023-04-01T07:06:42.105Z,1007.01
2023-04-01T07:06:52.210Z,1007.06
2023-04-01T07:07:02.332Z,1007.03
2023-04-01T07:07:12.392Z,1007.06
2023-04-01T07:07:22.526Z,1007.05
2023-04-01T07:07:32.675Z,1007.08
2023-04-01T07:07:42.876Z,1007.08
2023-04-01T07:07:52.920Z,1007.08
2023-04-01T07:08:02.946Z,1007.04
2023-04-01T07:08:13.038Z,1007.00
2023-04-01T07:08:23.281Z,1007.06
2023-04-01T07:08:33.474Z,1007.03
2023-04-01T07:08:43.542Z,1007.01
2023-04-01T07:08:53.653Z,1007.00
2023-04-01T07:09:05.874Z,1007.01
2023-04-01T07:09:13.858Z,1006.95
2023-04-01T07:09:23.917Z,1006.93
2023-04-01T07:09:34.095Z,1006.92
2023-04-01T07:09:44.130Z,1006.92
2023-04-01T07:09:54.304Z,1006.89
2023-04-01T07:10:04.316Z,1006.87
2023-04-01T07:10:14.613Z,1006.74
2023-04-01T07:10:24.613Z,1006.83
2023-04-01T07:10:34.871Z,1006.80
2023-04-01T07:10:44.844Z,1006.75
2023-04-01T07:10:55.200Z,1006.76
2023-04-01T07:11:05.207Z,1006.73
2023-04-01T07:11:15.256Z,1006.69
2023-04-01T07:11:25.314Z,1006.71
2023-04-01T07:11:35.503Z,1006.66
2023-04-01T07:11:45.575Z,1006.61
2023-04-01T07:11:55.895Z,1006.61
2023-04-01T07:12:06.033Z,1006.62
2023-04-01T07:12:15.947Z,1006.64
2023-04-01T07:12:26.120Z,1006.64
2023-04-01T07:12:36.213Z,1006.66
2023-04-01T07:12:46.284Z,1006.69
2023-04-01T07:12:56.412Z,1006.69
2023-04-01T07:13:06.498Z,1006.66
2023-04-01T07:13:16.682Z,1006.64
2023-04-01T07:13:26.668Z,1006.66
2023-04-01T07:13:36.865Z,1006.71
2023-04-01T07:13:46.929Z,1006.70
2023-04-01T07:13:57.101Z,1006.75
2023-04-01T07:14:07.157Z,1006.73
2023-04-01T07:14:17.277Z,1006.68
2023-04-01T07:14:27.470Z,1006.79
2023-04-01T07:14:37.693Z,1006.74
2023-04-01T07:14:47.844Z,1006.75
2023-04-01T07:14:57.835Z,1006.74
2023-04-01T07:15:08.088Z,1006.77
2023-04-01T07:15:18.236Z,1006.81
2023-04-01T07:15:28.304Z,1006.82
2023-04-01T07:15:38.460Z,1006.83
2023-04-01T07:15:48.587Z,1006.82
2023-04-01T07:15:58.717Z,1006.81
2023-04-01T07:16:08.711Z,1006.84
2023-04-01T07:16:18.936Z,1006.85
2023-04-01T07:16:29.006Z,1006.85
2023-04-01T07:16:39.189Z,1006.86
2023-04-01T07:16:49.292Z,1006.89
2023-04-01T07:16:59.402Z,1006.94
2023-04-01T07:17:09.434Z,1006.90
2023-04-01T07:17:19.521Z,1006.90
2023-04-01T07:17:29.709Z,1006.89
2023-04-01T07:17:39.891Z,1006.90
2023-04-01T07:17:49.893Z,1006.92
2023-04-01T07:18:00.038Z,1006.90
2023-04-01T07:18:10.016Z,1006.89
2023-04-01T07:18:20.236Z,1006.91
2023-04-01T07:18:30.250Z,1006.89
2023-04-01T07:18:40.352Z,1006.90
2023-04-01T07:18:50.494Z,1006.89
2023-04-01T07:19:01.348Z,1006.85
2023-04-01T07:19:10.755Z,1006.84
2023-04-01T07:19:20.742Z,1006.85
2023-04-01T07:19:33.711Z,1006.91
2023-04-01T07:19:41.180Z,1006.87
2023-04-01T07:19:51.223Z,1006.87
2023-04-01T07:20:01.345Z,1006.83
2023-04-01T07:20:11.400Z,1006.92
2023-04-01T07:20:21.488Z,1006.88
2023-04-01T07:20:41.803Z,1006.83
2023-04-01T07:20:51.814Z,1006.82
2023-04-01T07:21:02.162Z,1006.82
2023-04-01T07:21:12.182Z,1006.83
2023-04-01T07:21:22.195Z,1006.86
2023-04-01T07:21:33.451Z,1006.86
2023-04-01T07:21:42.409Z,1006.82
2023-04-01T07:21:52.546Z,1006.85
2023-04-01T07:22:02.816Z,1006.86
2023-04-01T07:22:12.806Z,1006.81
2023-04-01T07:22:23.091Z,1006.82
2023-04-01T07:22:33.155Z,1006.79
2023-04-01T07:22:43.280Z,1006.81
2023-04-01T07:22:53.432Z,1006.79
2023-04-01T07:23:03.577Z,1006.80
2023-04-01T07:23:14.530Z,1006.77
2023-04-01T07:23:23.831Z,1006.87
2023-04-01T07:23:33.858Z,1006.82
2023-04-01T07:23:44.021Z,1006.79
2023-04-01T07:23:54.264Z,1006.78
2023-04-01T07:24:04.354Z,1006.77
2023-04-01T07:24:24.482Z,1006.80
2023-04-01T07:24:34.566Z,1006.75
2023-04-01T07:24:44.775Z,1006.71
2023-04-01T07:24:54.814Z,1006.74
2023-04-01T07:25:05.023Z,1006.76
2023-04-01T07:25:15.099Z,1006.74
2023-04-01T07:25:25.253Z,1006.68
2023-04-01T07:25:35.620Z,1006.72
2023-04-01T07:25:45.573Z,1006.70
2023-04-01T07:25:55.582Z,1006.63
2023-04-01T07:26:05.675Z,1006.67
2023-04-01T07:26:15.740Z,1006.67
2023-04-01T07:26:26.002Z,1006.64
2023-04-01T07:26:36.082Z,1006.65
2023-04-01T07:26:47.163Z,1006.54
2023-04-01T07:26:56.255Z,1006.57
2023-04-01T07:27:06.415Z,1006.53
2023-04-01T07:27:16.504Z,1006.53
2023-04-01T07:27:26.643Z,1006.46
2023-04-01T07:27:36.745Z,1006.48
2023-04-01T07:27:46.938Z,1006.40
2023-04-01T07:27:57.058Z,1006.46
2023-04-01T07:28:07.244Z,1006.45
2023-04-01T07:28:17.234Z,1006.40
2023-04-01T07:28:27.492Z,1006.37
2023-04-01T07:28:37.676Z,1006.35
2023-04-01T07:28:47.611Z,1006.35
2023-04-01T07:28:57.672Z,1006.35
2023-04-01T07:29:07.906Z,1006.28
2023-04-01T07:29:17.995Z,1006.30
2023-04-01T07:29:28.047Z,1006.32
2023-04-01T07:29:38.052Z,1006.33
2023-04-01T07:29:48.372Z,1006.35
2023-04-01T07:29:58.346Z,1006.35
2023-04-01T07:30:08.570Z,1006.34
2023-04-01T07:30:18.602Z,1006.38
2023-04-01T07:30:28.860Z,1006.35
2023-04-01T07:30:38.762Z,1006.39
2023-04-01T07:30:48.907Z,1006.37
2023-04-01T07:30:59.054Z,1006.45
2023-04-01T07:31:09.220Z,1006.49
2023-04-01T07:31:19.355Z,1006.54
2023-04-01T07:31:29.369Z,1006.59
2023-04-01T07:31:39.603Z,1006.58
2023-04-01T07:31:49.632Z,1006.68
2023-04-01T07:31:59.703Z,1006.70
2023-04-01T07:32:09.878Z,1006.80
2023-04-01T07:32:20.044Z,1006.84
2023-04-01T07:32:30.025Z,1006.83
2023-04-01T07:32:40.186Z,1006.90
2023-04-01T07:32:50.407Z,1006.97
2023-04-01T07:33:00.477Z,1007.04
2023-04-01T07:33:10.559Z,1007.13
2023-04-01T07:33:20.736Z,1007.09
2023-04-01T07:33:30.858Z,1007.23
2023-04-01T07:33:40.881Z,1007.21
2023-04-01T07:33:51.081Z,1007.25
2023-04-01T07:34:01.200Z,1007.24
2023-04-01T07:34:11.352Z,1007.31
